sensor_id;sensor_type;location;lat;lon;timestamp;pressure;altitude;pressure_sealevel;temperature;humidity
50125;BME280;36023;48.670;6.184;2023-04-07T00:01:33;98978.72;;;16.40;37.05
50125;BME280;36023;48.670;6.184;2023-04-07T00:03:59;98974.34;;;16.41;36.95
50125;BME280;36023;48.670;6.184;2023-04-07T00:06:25;98970.88;;;16.40;37.06
50125;BME280;36023;48.670;6.184;2023-04-07T00:08:52;98970.88;;;16.40;37.05
50125;BME280;36023;48.670;6.184;2023-04-07T00:11:19;98970.88;;;16.40;37.00
50125;BME280;36023;48.670;6.184;2023-04-07T00:13:45;98967.44;;;16.40;37.11
50125;BME280;36023;48.670;6.184;2023-04-07T00:16:11;98967.44;;;16.40;37.07
50125;BME280;36023;48.670;6.184;2023-04-07T00:18:36;98963.97;;;16.39;37.01
50125;BME280;36023;48.670;6.184;2023-04-07T00:21:02;98966.56;;;16.39;37.03
50125;BME280;36023;48.670;6.184;2023-04-07T00:23:27;98965.66;;;16.40;36.93
50125;BME280;36023;48.670;6.184;2023-04-07T00:25:53;98969.19;;;16.39;37.07
50125;BME280;36023;48.670;6.184;2023-04-07T00:28:19;98965.72;;;16.39;36.96
50125;BME280;36023;48.670;6.184;2023-04-07T00:30:45;98964.81;;;16.40;37.01
50125;BME280;36023;48.670;6.184;2023-04-07T00:33:11;98957.88;;;16.39;37.11
50125;BME280;36023;48.670;6.184;2023-04-07T00:35:38;98951.75;;;16.40;37.14
50125;BME280;36023;48.670;6.184;2023-04-07T00:38:04;98953.50;;;16.39;37.21
50125;BME280;36023;48.670;6.184;2023-04-07T00:40:30;98955.28;;;16.39;37.18
50125;BME280;36023;48.670;6.184;2023-04-07T00:42:56;98946.50;;;16.40;37.24
50125;BME280;36023;48.670;6.184;2023-04-07T00:45:22;98946.50;;;16.40;37.24
50125;BME280;36023;48.670;6.184;2023-04-07T00:47:48;98930.84;;;16.40;37.16
50125;BME280;36023;48.670;6.184;2023-04-07T00:50:14;98932.59;;;16.39;37.24
50125;BME280;36023;48.670;6.184;2023-04-07T00:52:40;98939.53;;;16.40;37.25
50125;BME280;36023;48.670;6.184;2023-04-07T00:55:06;98933.44;;;16.40;37.24
50125;BME280;36023;48.670;6.184;2023-04-07T00:57:32;98927.38;;;16.39;37.47
50125;BME280;36023;48.670;6.184;2023-04-07T01:00:00;98925.59;;;16.40;37.34
50125;BME280;36023;48.670;6.184;2023-04-07T01:02:40;98925.59;;;16.40;37.27
50125;BME280;36023;48.670;6.184;2023-04-07T01:08:14;98933.44;;;16.40;37.35
50125;BME280;36023;48.670;6.184;2023-04-07T01:13:49;98932.59;;;16.39;37.33
50125;BME280;36023;48.670;6.184;2023-04-07T01:16:42;98919.53;;;16.39;37.55
50125;BME280;36023;48.670;6.184;2023-04-07T01:21:39;98895.25;;;16.37;37.47
50125;BME280;36023;48.670;6.184;2023-04-07T01:26:56;98899.53;;;16.38;37.46
50125;BME280;36023;48.670;6.184;2023-04-07T01:31:59;98892.63;;;16.37;37.56
50125;BME280;36023;48.670;6.184;2023-04-07T01:34:28;98882.19;;;16.37;37.50
50125;BME280;36023;48.670;6.184;2023-04-07T01:36:55;98863.97;;;16.36;37.43
50125;BME280;36023;48.670;6.184;2023-04-07T01:39:25;98867.41;;;16.36;37.60
50125;BME280;36023;48.670;6.184;2023-04-07T01:41:51;98864.81;;;16.36;37.60
50125;BME280;36023;48.670;6.184;2023-04-07T01:44:18;98865.72;;;16.35;37.62
50125;BME280;36023;48.670;6.184;2023-04-07T01:46:44;98871.78;;;16.36;37.53
50125;BME280;36023;48.670;6.184;2023-04-07T01:49:12;98863.13;;;16.35;37.63
50125;BME280;36023;48.670;6.184;2023-04-07T01:51:38;98867.50;;;16.35;37.64
50125;BME280;36023;48.670;6.184;2023-04-07T01:54:05;98869.19;;;16.36;37.49
50125;BME280;36023;48.670;6.184;2023-04-07T01:56:32;98866.56;;;16.36;37.58
50125;BME280;36023;48.670;6.184;2023-04-07T01:58:59;98867.50;;;16.35;37.57
50125;BME280;36023;48.670;6.184;2023-04-07T02:01:25;98866.66;;;16.34;37.58
50125;BME280;36023;48.670;6.184;2023-04-07T02:06:32;98877.94;;;16.35;37.65
50125;BME280;36023;48.670;6.184;2023-04-07T02:09:06;98871.88;;;16.34;37.74
50125;BME280;36023;48.670;6.184;2023-04-07T02:11:33;98871.00;;;16.34;37.79
50125;BME280;36023;48.670;6.184;2023-04-07T02:14:03;98870.09;;;16.35;37.69
50125;BME280;36023;48.670;6.184;2023-04-07T02:16:36;98858.81;;;16.34;37.78
50125;BME280;36023;48.670;6.184;2023-04-07T02:19:04;98867.50;;;16.35;37.82
50125;BME280;36023;48.670;6.184;2023-04-07T02:21:32;98869.25;;;16.34;37.68
50125;BME280;36023;48.670;6.184;2023-04-07T02:24:05;98872.72;;;16.35;37.79
50125;BME280;36023;48.670;6.184;2023-04-07T02:26:34;98871.88;;;16.34;37.88
50125;BME280;36023;48.670;6.184;2023-04-07T02:29:01;98880.56;;;16.35;37.86
50125;BME280;36023;48.670;6.184;2023-04-07T02:31:28;98878.78;;;16.35;37.78
50125;BME280;36023;48.670;6.184;2023-04-07T02:33:54;98872.72;;;16.35;37.90
50125;BME280;36023;48.670;6.184;2023-04-07T02:36:19;98876.22;;;16.34;38.17
50125;BME280;36023;48.670;6.184;2023-04-07T02:38:45;98881.44;;;16.34;37.90
50125;BME280;36023;48.670;6.184;2023-04-07T02:41:12;98875.34;;;16.35;37.96
50125;BME280;36023;48.670;6.184;2023-04-07T02:43:38;98877.09;;;16.34;38.03
50125;BME280;36023;48.670;6.184;2023-04-07T02:46:04;98878.84;;;16.34;38.06
50125;BME280;36023;48.670;6.184;2023-04-07T02:48:30;98877.09;;;16.34;37.95
50125;BME280;36023;48.670;6.184;2023-04-07T02:50:57;98865.78;;;16.34;38.24
50125;BME280;36023;48.670;6.184;2023-04-07T02:53:23;98861.41;;;16.34;38.06
50125;BME280;36023;48.670;6.184;2023-04-07T02:55:48;98858.81;;;16.34;38.38
50125;BME280;36023;48.670;6.184;2023-04-07T02:58:16;98859.69;;;16.33;38.26
50125;BME280;36023;48.670;6.184;2023-04-07T03:00:43;98857.94;;;16.34;38.14
50125;BME280;36023;48.670;6.184;2023-04-07T03:03:12;98853.63;;;16.33;38.39
50125;BME280;36023;48.670;6.184;2023-04-07T03:05:41;98855.31;;;16.34;38.20
50125;BME280;36023;48.670;6.184;2023-04-07T03:08:08;98857.94;;;16.34;38.22
50125;BME280;36023;48.670;6.184;2023-04-07T03:10:34;98857.94;;;16.34;38.20
50125;BME280;36023;48.670;6.184;2023-04-07T03:13:00;98862.31;;;16.33;38.12
50125;BME280;36023;48.670;6.184;2023-04-07T03:15:27;98863.25;;;16.32;38.15
50125;BME280;36023;48.670;6.184;2023-04-07T03:17:54;98860.63;;;16.32;38.33
50125;BME280;36023;48.670;6.184;2023-04-07T03:20:19;98864.09;;;16.33;38.25
50125;BME280;36023;48.670;6.184;2023-04-07T03:22:45;98866.78;;;16.31;38.23
50125;BME280;36023;48.670;6.184;2023-04-07T03:25:18;98858.00;;;16.32;38.43
50125;BME280;36023;48.670;6.184;2023-04-07T03:27:45;98858.00;;;16.32;38.35
50125;BME280;36023;48.670;6.184;2023-04-07T03:30:13;98863.25;;;16.32;38.42
50125;BME280;36023;48.670;6.184;2023-04-07T03:32:40;98855.47;;;16.31;38.33
50125;BME280;36023;48.670;6.184;2023-04-07T03:35:06;98859.00;;;16.30;38.35
50125;BME280;36023;48.670;6.184;2023-04-07T03:37:32;98857.25;;;16.30;38.48
50125;BME280;36023;48.670;6.184;2023-04-07T03:39:59;98859.84;;;16.30;38.42
50125;BME280;36023;48.670;6.184;2023-04-07T03:42:32;98859.84;;;16.30;38.61
50125;BME280;36023;48.670;6.184;2023-04-07T03:45:02;98859.00;;;16.30;38.44
50125;BME280;36023;48.670;6.184;2023-04-07T03:47:29;98861.63;;;16.30;38.20
50125;BME280;36023;48.670;6.184;2023-04-07T03:49:59;98852.94;;;16.29;38.47
50125;BME280;36023;48.670;6.184;2023-04-07T03:52:25;98846.88;;;16.29;38.48
50125;BME280;36023;48.670;6.184;2023-04-07T03:54:58;98845.94;;;16.30;38.53
50125;BME280;36023;48.670;6.184;2023-04-07T03:57:29;98838.19;;;16.28;38.51
50125;BME280;36023;48.670;6.184;2023-04-07T03:59:58;98853.88;;;16.28;38.49
50125;BME280;36023;48.670;6.184;2023-04-07T04:02:24;98850.41;;;16.28;38.46
50125;BME280;36023;48.670;6.184;2023-04-07T04:04:52;98850.41;;;16.28;38.39
50125;BME280;36023;48.670;6.184;2023-04-07T04:07:19;98846.94;;;16.27;38.62
50125;BME280;36023;48.670;6.184;2023-04-07T04:09:52;98851.25;;;16.28;38.49
50125;BME280;36023;48.670;6.184;2023-04-07T04:12:18;98855.63;;;16.28;38.54
50125;BME280;36023;48.670;6.184;2023-04-07T04:15:02;98844.34;;;16.27;38.60
50125;BME280;36023;48.670;6.184;2023-04-07T04:17:28;98846.09;;;16.27;38.58
50125;BME280;36023;48.670;6.184;2023-04-07T04:19:54;98850.44;;;16.26;38.57
50125;BME280;36023;48.670;6.184;2023-04-07T04:22:25;98850.44;;;16.26;38.54
50125;BME280;36023;48.670;6.184;2023-04-07T04:24:53;98847.00;;;16.26;38.58
50125;BME280;36023;48.670;6.184;2023-04-07T04:27:21;98853.06;;;16.26;38.64
50125;BME280;36023;48.670;6.184;2023-04-07T04:29:52;98848.72;;;16.27;38.60
50125;BME280;36023;48.670;6.184;2023-04-07T04:32:26;98853.06;;;16.26;38.78
50125;BME280;36023;48.670;6.184;2023-04-07T04:34:52;98856.56;;;16.27;38.60
50125;BME280;36023;48.670;6.184;2023-04-07T04:37:18;98855.63;;;16.28;38.90
50125;BME280;36023;48.670;6.184;2023-04-07T04:39:45;98855.63;;;16.28;38.99
50125;BME280;36023;48.670;6.184;2023-04-07T04:42:15;98846.78;;;16.30;39.11
50125;BME280;36023;48.670;6.184;2023-04-07T04:44:43;98846.59;;;16.35;39.14
50125;BME280;36023;48.670;6.184;2023-04-07T04:47:10;98842.03;;;16.38;39.86
50125;BME280;36023;48.670;6.184;2023-04-07T04:49:38;98840.91;;;16.44;39.25
50125;BME280;36023;48.670;6.184;2023-04-07T04:52:04;98853.69;;;16.50;39.22
50125;BME280;36023;48.670;6.184;2023-04-07T04:54:36;98844.63;;;16.57;39.10
50125;BME280;36023;48.670;6.184;2023-04-07T04:57:02;98846.19;;;16.61;39.27
50125;BME280;36023;48.670;6.184;2023-04-07T04:59:28;98856.34;;;16.67;39.26
50125;BME280;36023;48.670;6.184;2023-04-07T05:02:03;98856.97;;;16.73;39.29
50125;BME280;36023;48.670;6.184;2023-04-07T05:04:29;98862.00;;;16.77;39.01
50125;BME280;36023;48.670;6.184;2023-04-07T05:07:06;98860.88;;;16.83;39.00
50125;BME280;36023;48.670;6.184;2023-04-07T05:09:32;98864.16;;;16.86;38.98
50125;BME280;36023;48.670;6.184;2023-04-07T05:11:58;98853.56;;;16.89;39.00
50125;BME280;36023;48.670;6.184;2023-04-07T05:14:26;98861.25;;;16.92;39.00
50125;BME280;36023;48.670;6.184;2023-04-07T05:16:57;98857.59;;;16.96;38.97
50125;BME280;36023;48.670;6.184;2023-04-07T05:19:27;98859.19;;;16.99;38.94
50125;BME280;36023;48.670;6.184;2023-04-07T05:21:56;98866.88;;;17.02;38.93
50125;BME280;36023;48.670;6.184;2023-04-07T05:24:25;98867.63;;;17.04;38.99
50125;BME280;36023;48.670;6.184;2023-04-07T05:26:54;98875.34;;;17.07;38.92
50125;BME280;36023;48.670;6.184;2023-04-07T05:29:22;98876.13;;;17.09;38.80
50125;BME280;36023;48.670;6.184;2023-04-07T05:31:47;98875.97;;;17.12;38.89
50125;BME280;36023;48.670;6.184;2023-04-07T05:34:15;98873.28;;;17.14;38.93
50125;BME280;36023;48.670;6.184;2023-04-07T05:36:47;98870.56;;;17.15;38.80
50125;BME280;36023;48.670;6.184;2023-04-07T05:39:14;98874.81;;;17.18;38.87
50125;BME280;36023;48.670;6.184;2023-04-07T05:41:41;98867.75;;;17.20;38.92
50125;BME280;36023;48.670;6.184;2023-04-07T05:44:08;98864.19;;;17.21;38.89
50125;BME280;36023;48.670;6.184;2023-04-07T05:46:38;98866.72;;;17.22;38.52
50125;BME280;36023;48.670;6.184;2023-04-07T05:49:03;98870.13;;;17.24;38.69
50125;BME280;36023;48.670;6.184;2023-04-07T05:51:29;98868.25;;;17.26;38.94
50125;BME280;36023;48.670;6.184;2023-04-07T05:54:00;98870.81;;;17.28;38.96
50125;BME280;36023;48.670;6.184;2023-04-07T05:56:26;98874.13;;;17.32;38.77
50125;BME280;36023;48.670;6.184;2023-04-07T05:58:54;98885.44;;;17.32;38.68
50125;BME280;36023;48.670;6.184;2023-04-07T06:01:20;98882.81;;;17.32;38.60
50125;BME280;36023;48.670;6.184;2023-04-07T06:03:47;98887.97;;;17.34;38.73
50125;BME280;36023;48.670;6.184;2023-04-07T06:06:17;98887.88;;;17.35;38.75
50125;BME280;36023;48.670;6.184;2023-04-07T06:08:44;98892.22;;;17.36;38.69
50125;BME280;36023;48.670;6.184;2023-04-07T06:11:11;98882.59;;;17.37;38.83
50125;BME280;36023;48.670;6.184;2023-04-07T06:13:37;98887.03;;;17.35;38.70
50125;BME280;36023;48.670;6.184;2023-04-07T06:16:03;98881.81;;;17.35;38.61
50125;BME280;36023;48.670;6.184;2023-04-07T06:18:29;98887.03;;;17.35;38.77
50125;BME280;36023;48.670;6.184;2023-04-07T06:20:55;98886.19;;;17.34;38.73
50125;BME280;36023;48.670;6.184;2023-04-07T06:23:21;98888.03;;;17.32;38.30
50125;BME280;36023;48.670;6.184;2023-04-07T06:25:47;98892.44;;;17.32;38.67
50125;BME280;36023;48.670;6.184;2023-04-07T06:28:16;98882.13;;;17.29;38.82
50125;BME280;36023;48.670;6.184;2023-04-07T06:30:43;98887.41;;;17.27;38.95
50125;BME280;36023;48.670;6.184;2023-04-07T06:33:11;98892.66;;;17.27;38.70
50125;BME280;36023;48.670;6.184;2023-04-07T06:35:38;98892.75;;;17.25;38.97
50125;BME280;36023;48.670;6.184;2023-04-07T06:38:05;98897.13;;;17.25;39.15
50125;BME280;36023;48.670;6.184;2023-04-07T06:40:32;98896.38;;;17.23;39.20
50125;BME280;36023;48.670;6.184;2023-04-07T06:42:58;98892.06;;;17.22;39.31
50125;BME280;36023;48.670;6.184;2023-04-07T06:45:29;98892.16;;;17.20;39.68
50125;BME280;36023;48.670;6.184;2023-04-07T06:47:55;98893.59;;;17.26;40.86
50125;BME280;36023;48.670;6.184;2023-04-07T06:50:24;98899.38;;;17.33;41.04
50125;BME280;36023;48.670;6.184;2023-04-07T06:52:49;98896.66;;;17.34;42.00
50125;BME280;36023;48.670;6.184;2023-04-07T06:55:15;98891.44;;;17.34;41.99
50125;BME280;36023;48.670;6.184;2023-04-07T06:57:43;98890.66;;;17.32;42.49
50125;BME280;36023;48.670;6.184;2023-04-07T07:00:09;98891.69;;;17.30;42.75
50125;BME280;36023;48.670;6.184;2023-04-07T07:02:35;98895.28;;;17.27;42.88
50125;BME280;36023;48.670;6.184;2023-04-07T07:05:01;98898.97;;;17.23;43.12
50125;BME280;36023;48.670;6.184;2023-04-07T07:07:29;98897.44;;;17.19;43.25
50125;BME280;36023;48.670;6.184;2023-04-07T07:09:56;98900.13;;;17.17;43.53
50125;BME280;36023;48.670;6.184;2023-04-07T07:12:22;98896.75;;;17.15;43.40
50125;BME280;36023;48.670;6.184;2023-04-07T07:14:48;98903.03;;;17.11;43.70
50125;BME280;36023;48.670;6.184;2023-04-07T07:17:13;98905.81;;;17.08;43.74
50125;BME280;36023;48.670;6.184;2023-04-07T07:19:39;98902.44;;;17.06;44.01
50125;BME280;36023;48.670;6.184;2023-04-07T07:22:05;98910.38;;;17.05;44.17
50125;BME280;36023;48.670;6.184;2023-04-07T07:24:30;98908.72;;;17.02;44.21
50125;BME280;36023;48.670;6.184;2023-04-07T07:26:59;98908.81;;;17.01;44.55
50125;BME280;36023;48.670;6.184;2023-04-07T07:29:26;98908.03;;;16.98;44.47
50125;BME280;36023;48.670;6.184;2023-04-07T07:31:51;98916.81;;;16.97;44.33
50125;BME280;36023;48.670;6.184;2023-04-07T07:34:17;98909.94;;;16.95;44.81
50125;BME280;36023;48.670;6.184;2023-04-07T07:36:43;98917.88;;;16.93;44.89
50125;BME280;36023;48.670;6.184;2023-04-07T07:39:08;98920.41;;;16.95;44.87
50125;BME280;36023;48.670;6.184;2023-04-07T07:41:34;98922.91;;;16.98;44.82
50125;BME280;36023;48.670;6.184;2023-04-07T07:44:04;98922.06;;;16.97;44.86
50125;BME280;36023;48.670;6.184;2023-04-07T07:46:29;98927.22;;;16.99;44.81
50125;BME280;36023;48.670;6.184;2023-04-07T07:48:55;98928.91;;;17.00;45.10
50125;BME280;36023;48.670;6.184;2023-04-07T07:51:20;98934.91;;;17.02;45.01
50125;BME280;36023;48.670;6.184;2023-04-07T07:53:46;98939.16;;;17.05;44.90
50125;BME280;36023;48.670;6.184;2023-04-07T07:56:13;98939.06;;;17.06;44.99
50125;BME280;36023;48.670;6.184;2023-04-07T07:58:40;98944.16;;;17.09;45.01
50125;BME280;36023;48.670;6.184;2023-04-07T08:01:05;98945.84;;;17.10;44.90
50125;BME280;36023;48.670;6.184;2023-04-07T08:03:31;98946.56;;;17.14;44.81
50125;BME280;36023;48.670;6.184;2023-04-07T08:05:57;98949.94;;;17.16;44.83
50125;BME280;36023;48.670;6.184;2023-04-07T08:08:24;98945.47;;;17.18;44.67
50125;BME280;36023;48.670;6.184;2023-04-07T08:10:50;98955.84;;;17.19;44.72
50125;BME280;36023;48.670;6.184;2023-04-07T08:13:16;98952.19;;;17.23;44.81
50125;BME280;36023;48.670;6.184;2023-04-07T08:15:41;98958.25;;;17.24;44.54
50125;BME280;36023;48.670;6.184;2023-04-07T08:18:07;98952.19;;;17.23;44.43
50125;BME280;36023;48.670;6.184;2023-04-07T08:20:33;98955.72;;;17.22;44.44
50125;BME280;36023;48.670;6.184;2023-04-07T08:22:59;98965.34;;;17.22;44.40
50125;BME280;36023;48.670;6.184;2023-04-07T08:25:27;98967.13;;;17.21;44.35
50125;BME280;36023;48.670;6.184;2023-04-07T08:27:53;98963.69;;;17.19;44.39
50125;BME280;36023;48.670;6.184;2023-04-07T08:30:19;98967.25;;;17.18;44.37
50125;BME280;36023;48.670;6.184;2023-04-07T08:32:46;98963.88;;;17.16;44.48
50125;BME280;36023;48.670;6.184;2023-04-07T08:35:12;98960.41;;;17.16;44.30
50125;BME280;36023;48.670;6.184;2023-04-07T08:37:39;98967.41;;;17.15;44.28
50125;BME280;36023;48.670;6.184;2023-04-07T08:40:06;98975.34;;;17.14;44.35
50125;BME280;36023;48.670;6.184;2023-04-07T08:42:39;98975.47;;;17.11;44.25
50125;BME280;36023;48.670;6.184;2023-04-07T08:45:07;98969.47;;;17.09;44.28
50125;BME280;36023;48.670;6.184;2023-04-07T08:47:35;98980.94;;;17.06;44.42
50125;BME280;36023;48.670;6.184;2023-04-07T08:50:03;98968.81;;;17.04;44.23
50125;BME280;36023;48.670;6.184;2023-04-07T08:52:55;98972.44;;;17.01;44.29
50125;BME280;36023;48.670;6.184;2023-04-07T08:55:22;98977.75;;;16.99;44.21
50125;BME280;36023;48.670;6.184;2023-04-07T08:57:50;98972.69;;;16.96;44.09
50125;BME280;36023;48.670;6.184;2023-04-07T09:00:16;98976.28;;;16.94;44.03
50125;BME280;36023;48.670;6.184;2023-04-07T09:02:43;98981.59;;;16.92;43.81
50125;BME280;36023;48.670;6.184;2023-04-07T09:05:14;98981.66;;;16.91;44.23
50125;BME280;36023;48.670;6.184;2023-04-07T09:07:42;98978.19;;;16.90;43.99
50125;BME280;36023;48.670;6.184;2023-04-07T09:10:09;98984.41;;;16.88;43.93
50125;BME280;36023;48.670;6.184;2023-04-07T09:12:35;98983.63;;;16.86;43.55
50125;BME280;36023;48.670;6.184;2023-04-07T09:15:01;98995.03;;;16.85;43.76
50125;BME280;36023;48.670;6.184;2023-04-07T09:17:28;98990.78;;;16.82;43.67
50125;BME280;36023;48.670;6.184;2023-04-07T09:19:58;98988.19;;;16.82;43.68
50125;BME280;36023;48.670;6.184;2023-04-07T09:22:34;98996.06;;;16.81;43.64
50125;BME280;36023;48.670;6.184;2023-04-07T09:27:35;98994.38;;;16.80;43.54
50125;BME280;36023;48.670;6.184;2023-04-07T09:30:12;98992.78;;;16.77;43.53
50125;BME280;36023;48.670;6.184;2023-04-07T09:32:39;98998.91;;;16.76;43.57
50125;BME280;36023;48.670;6.184;2023-04-07T09:35:06;98992.84;;;16.76;43.30
50125;BME280;36023;48.670;6.184;2023-04-07T09:37:32;98996.38;;;16.75;43.37
50125;BME280;36023;48.670;6.184;2023-04-07T09:39:57;98989.47;;;16.74;43.37
50125;BME280;36023;48.670;6.184;2023-04-07T09:42:27;98990.34;;;16.73;43.32
50125;BME280;36023;48.670;6.184;2023-04-07T09:45:00;98996.47;;;16.73;43.31
50125;BME280;36023;48.670;6.184;2023-04-07T09:47:27;98991.22;;;16.73;43.52
50125;BME280;36023;48.670;6.184;2023-04-07T09:49:54;98994.69;;;16.74;43.40
50125;BME280;36023;48.670;6.184;2023-04-07T09:52:51;98991.16;;;16.75;43.52
50125;BME280;36023;48.670;6.184;2023-04-07T09:55:21;98985.91;;;16.75;43.60
50125;BME280;36023;48.670;6.184;2023-04-07T09:57:50;98986.84;;;16.74;43.33
50125;BME280;36023;48.670;6.184;2023-04-07T10:00:16;98986.00;;;16.73;43.31
50125;BME280;36023;48.670;6.184;2023-04-07T10:02:42;98982.50;;;16.73;43.23
50125;BME280;36023;48.670;6.184;2023-04-07T10:05:09;98980.81;;;16.71;43.33
50125;BME280;36023;48.670;6.184;2023-04-07T10:07:35;98977.28;;;16.73;43.49
50125;BME280;36023;48.670;6.184;2023-04-07T10:10:02;98976.38;;;16.74;43.38
50125;BME280;36023;48.670;6.184;2023-04-07T10:12:33;98982.31;;;16.77;43.32
50125;BME280;36023;48.670;6.184;2023-04-07T10:14:59;98971.69;;;16.80;43.34
50125;BME280;36023;48.670;6.184;2023-04-07T10:17:27;98976.03;;;16.81;43.34
50125;BME280;36023;48.670;6.184;2023-04-07T10:19:53;98972.50;;;16.82;43.27
50125;BME280;36023;48.670;6.184;2023-04-07T10:22:20;98978.56;;;16.83;43.48
50125;BME280;36023;48.670;6.184;2023-04-07T10:25:05;98981.19;;;16.83;43.21
50125;BME280;36023;48.670;6.184;2023-04-07T10:27:58;98985.56;;;16.82;43.20
50125;BME280;36023;48.670;6.184;2023-04-07T10:30:27;98982.09;;;16.82;43.01
50125;BME280;36023;48.670;6.184;2023-04-07T10:32:54;98988.19;;;16.82;43.33
50125;BME280;36023;48.670;6.184;2023-04-07T10:35:20;98990.72;;;16.84;43.40
50125;BME280;36023;48.670;6.184;2023-04-07T10:38:16;98979.34;;;16.85;43.57
50125;BME280;36023;48.670;6.184;2023-04-07T10:40:42;98979.97;;;16.90;44.22
50125;BME280;36023;48.670;6.184;2023-04-07T10:43:09;98982.44;;;16.93;43.89
50125;BME280;36023;48.670;6.184;2023-04-07T10:45:51;98978.81;;;16.95;44.21
50125;BME280;36023;48.670;6.184;2023-04-07T10:48:18;98992.59;;;16.99;44.47
50125;BME280;36023;48.670;6.184;2023-04-07T10:50:45;98990.69;;;17.03;44.83
50125;BME280;36023;48.670;6.184;2023-04-07T10:53:14;98988.88;;;17.05;44.93
50125;BME280;36023;48.670;6.184;2023-04-07T10:55:44;98986.16;;;17.06;44.83
50125;BME280;36023;48.670;6.184;2023-04-07T11:03:27;98979.56;;;17.16;45.41
50125;BME280;36023;48.670;6.184;2023-04-07T11:06:03;98977.72;;;17.18;45.62
50125;BME280;36023;48.670;6.184;2023-04-07T11:08:44;98974.16;;;17.19;45.54
50125;BME280;36023;48.670;6.184;2023-04-07T11:11:34;98973.31;;;17.19;44.88
50125;BME280;36023;48.670;6.184;2023-04-07T11:14:03;98971.56;;;17.19;45.28
50125;BME280;36023;48.670;6.184;2023-04-07T11:16:37;98979.34;;;17.21;45.20
50125;BME280;36023;48.670;6.184;2023-04-07T11:19:03;98983.75;;;17.20;45.22
50125;BME280;36023;48.670;6.184;2023-04-07T11:21:28;98984.59;;;17.21;45.13
50125;BME280;36023;48.670;6.184;2023-04-07T11:23:54;98987.25;;;17.19;44.91
50125;BME280;36023;48.670;6.184;2023-04-07T11:26:20;98988.13;;;17.20;45.07
50125;BME280;36023;48.670;6.184;2023-04-07T11:28:52;98989.88;;;17.19;44.96
50125;BME280;36023;48.670;6.184;2023-04-07T11:31:23;98992.56;;;17.18;44.57
50125;BME280;36023;48.670;6.184;2023-04-07T11:33:53;98991.97;;;17.13;44.19
50125;BME280;36023;48.670;6.184;2023-04-07T11:36:33;98989.56;;;17.08;44.08
50125;BME280;36023;48.670;6.184;2023-04-07T11:39:00;99008.03;;;17.05;44.09
50125;BME280;36023;48.670;6.184;2023-04-07T11:41:28;99005.53;;;17.02;44.28
50125;BME280;36023;48.670;6.184;2023-04-07T11:44:09;99015.22;;;17.00;44.23
50125;BME280;36023;48.670;6.184;2023-04-07T11:46:52;99016.16;;;16.99;44.25
50125;BME280;36023;48.670;6.184;2023-04-07T11:49:19;99017.09;;;16.98;44.00
50125;BME280;36023;48.670;6.184;2023-04-07T11:51:45;99014.59;;;16.95;43.92
50125;BME280;36023;48.670;6.184;2023-04-07T11:54:12;99016.34;;;16.94;44.02
50125;BME280;36023;48.670;6.184;2023-04-07T11:56:45;99011.22;;;16.93;43.99
50125;BME280;36023;48.670;6.184;2023-04-07T11:59:22;99019.97;;;16.92;43.88
50125;BME280;36023;48.670;6.184;2023-04-07T12:01:49;99014.75;;;16.92;43.82
50125;BME280;36023;48.670;6.184;2023-04-07T12:04:16;99020.91;;;16.91;43.92
50125;BME280;36023;48.670;6.184;2023-04-07T12:06:47;99020.91;;;16.91;43.73
50125;BME280;36023;48.670;6.184;2023-04-07T12:09:27;99027.06;;;16.90;43.85
50125;BME280;36023;48.670;6.184;2023-04-07T12:11:53;99016.63;;;16.88;43.77
50125;BME280;36023;48.670;6.184;2023-04-07T12:14:19;99021.03;;;16.88;43.77
50125;BME280;36023;48.670;6.184;2023-04-07T12:16:45;99007.06;;;16.89;43.95
50125;BME280;36023;48.670;6.184;2023-04-07T12:19:11;99010.53;;;16.89;44.06
50125;BME280;36023;48.670;6.184;2023-04-07T12:21:37;99009.66;;;16.89;43.98
50125;BME280;36023;48.670;6.184;2023-04-07T12:24:02;99007.06;;;16.89;43.88
50125;BME280;36023;48.670;6.184;2023-04-07T12:26:28;99011.41;;;16.88;43.84
50125;BME280;36023;48.670;6.184;2023-04-07T12:28:54;99014.91;;;16.89;43.77
50125;BME280;36023;48.670;6.184;2023-04-07T12:31:20;99009.78;;;16.86;43.61
50125;BME280;36023;48.670;6.184;2023-04-07T12:33:46;99013.41;;;16.83;43.73
50125;BME280;36023;48.670;6.184;2023-04-07T12:36:12;99014.34;;;16.82;43.69
50125;BME280;36023;48.670;6.184;2023-04-07T12:38:37;99017.78;;;16.83;43.45
50125;BME280;36023;48.670;6.184;2023-04-07T12:41:04;99025.66;;;16.83;43.61
50125;BME280;36023;48.670;6.184;2023-04-07T12:43:29;99028.25;;;16.83;43.56
50125;BME280;36023;48.670;6.184;2023-04-07T12:45:56;99027.34;;;16.84;43.67
50125;BME280;36023;48.670;6.184;2023-04-07T12:48:22;99025.56;;;16.84;43.87
50125;BME280;36023;48.670;6.184;2023-04-07T12:50:48;99019.50;;;16.84;43.95
50125;BME280;36023;48.670;6.184;2023-04-07T12:53:14;99012.50;;;16.84;43.81
50125;BME280;36023;48.670;6.184;2023-04-07T12:55:47;99014.19;;;16.85;44.39
50125;BME280;36023;48.670;6.184;2023-04-07T12:58:12;99019.34;;;16.87;44.16
50125;BME280;36023;48.670;6.184;2023-04-07T13:00:39;99008.94;;;16.85;44.32
50125;BME280;36023;48.670;6.184;2023-04-07T13:03:06;99009.78;;;16.86;44.29
50125;BME280;36023;48.670;6.184;2023-04-07T13:05:31;99006.19;;;16.88;44.35
50125;BME280;36023;48.670;6.184;2023-04-07T13:07:58;99013.13;;;16.89;44.55
50125;BME280;36023;48.670;6.184;2023-04-07T13:10:26;99005.22;;;16.91;44.46
50125;BME280;36023;48.670;6.184;2023-04-07T13:12:52;99002.59;;;16.91;44.60
50125;BME280;36023;48.670;6.184;2023-04-07T13:15:18;99007.75;;;16.92;44.74
50125;BME280;36023;48.670;6.184;2023-04-07T13:17:43;99007.59;;;16.95;45.15
50125;BME280;36023;48.670;6.184;2023-04-07T13:20:09;99003.19;;;16.96;45.09
50125;BME280;36023;48.670;6.184;2023-04-07T13:22:35;99012.69;;;16.98;45.19
50125;BME280;36023;48.670;6.184;2023-04-07T13:25:00;99005.63;;;17.01;45.37
50125;BME280;36023;48.670;6.184;2023-04-07T13:27:26;99009.06;;;17.01;45.32
50125;BME280;36023;48.670;6.184;2023-04-07T13:29:52;99004.69;;;17.02;45.54